sensor_id;sensor_type;location;lat;lon;timestamp;pressure;altitude;pressure_sealevel;temperature;humidity
71151;BME280;59071;42.138;24.768;2023-07-20T00:01:21;99202.44;;;29.87;41.30
71151;BME280;59071;42.138;24.768;2023-07-20T00:03:47;99204.00;;;30.00;40.58
71151;BME280;59071;42.138;24.768;2023-07-20T00:06:20;99214.69;;;29.40;41.98
71151;BME280;59071;42.138;24.768;2023-07-20T00:08:45;99227.13;;;29.13;42.25
71151;BME280;59071;42.138;24.768;2023-07-20T00:11:11;99219.13;;;29.33;42.16
71151;BME280;59071;42.138;24.768;2023-07-20T00:13:38;99217.31;;;29.37;42.18
71151;BME280;59071;42.138;24.768;2023-07-20T00:16:04;99215.81;;;29.52;41.40
71151;BME280;59071;42.138;24.768;2023-07-20T00:18:29;99213.53;;;29.54;41.15
71151;BME280;59071;42.138;24.768;2023-07-20T00:20:55;99198.94;;;29.74;40.52
71151;BME280;59071;42.138;24.768;2023-07-20T00:23:20;99182.16;;;29.76;40.31
71151;BME280;59071;42.138;24.768;2023-07-20T00:25:48;99166.66;;;29.96;39.64
71151;BME280;59071;42.138;24.768;2023-07-20T00:28:13;99153.81;;;29.59;40.04
71151;BME280;59071;42.138;24.768;2023-07-20T00:30:39;99144.34;;;29.44;40.31
71151;BME280;59071;42.138;24.768;2023-07-20T00:33:04;99138.06;;;29.44;40.29
71151;BME280;59071;42.138;24.768;2023-07-20T00:35:30;99142.03;;;29.71;39.63
71151;BME280;59071;42.138;24.768;2023-07-20T00:37:55;99141.09;;;29.92;39.21
71151;BME280;59071;42.138;24.768;2023-07-20T00:40:20;99128.31;;;30.12;38.72
71151;BME280;59071;42.138;24.768;2023-07-20T00:42:46;99122.34;;;30.22;38.06
71151;BME280;59071;42.138;24.768;2023-07-20T00:45:11;99119.75;;;29.60;38.93
71151;BME280;59071;42.138;24.768;2023-07-20T00:47:37;99102.59;;;29.23;39.83
71151;BME280;59071;42.138;24.768;2023-07-20T00:50:02;99094.56;;;29.42;39.40
71151;BME280;59071;42.138;24.768;2023-07-20T00:52:29;99106.66;;;29.41;39.74
71151;BME280;59071;42.138;24.768;2023-07-20T00:54:55;99120.00;;;29.80;39.21
71151;BME280;59071;42.138;24.768;2023-07-20T00:57:22;99129.25;;;30.16;38.75
71151;BME280;59071;42.138;24.768;2023-07-20T00:59:49;99125.00;;;30.47;37.57
71151;BME280;59071;42.138;24.768;2023-07-20T01:02:14;99127.59;;;30.87;36.81
71151;BME280;59071;42.138;24.768;2023-07-20T01:04:40;99119.13;;;31.44;35.64
71151;BME280;59071;42.138;24.768;2023-07-20T01:07:16;99122.34;;;30.82;36.67
71151;BME280;59071;42.138;24.768;2023-07-20T01:14:46;99119.25;;;30.24;38.28
71151;BME280;59071;42.138;24.768;2023-07-20T01:17:12;99112.31;;;30.42;38.05
71151;BME280;59071;42.138;24.768;2023-07-20T01:19:37;99096.66;;;30.14;38.50
71151;BME280;59071;42.138;24.768;2023-07-20T01:27:29;99086.25;;;28.77;41.18
71151;BME280;59071;42.138;24.768;2023-07-20T01:32:40;99075.50;;;29.46;39.07
71151;BME280;59071;42.138;24.768;2023-07-20T01:35:09;99078.97;;;29.71;38.69
71151;BME280;59071;42.138;24.768;2023-07-20T01:37:37;99079.75;;;30.12;37.87
71151;BME280;59071;42.138;24.768;2023-07-20T01:40:03;99072.38;;;30.76;36.69
71151;BME280;59071;42.138;24.768;2023-07-20T01:42:29;99070.09;;;30.02;37.83
71151;BME280;59071;42.138;24.768;2023-07-20T01:44:55;99078.00;;;29.92;38.17
71151;BME280;59071;42.138;24.768;2023-07-20T01:47:20;99086.72;;;30.10;38.02
71151;BME280;59071;42.138;24.768;2023-07-20T01:49:46;99083.28;;;30.41;37.50
71151;BME280;59071;42.138;24.768;2023-07-20T01:52:11;99072.78;;;30.75;36.74
71151;BME280;59071;42.138;24.768;2023-07-20T01:54:37;99067.09;;;30.99;36.33
71151;BME280;59071;42.138;24.768;2023-07-20T01:57:02;99072.75;;;31.42;35.39
71151;BME280;59071;42.138;24.768;2023-07-20T01:59:29;99070.34;;;31.05;36.00
71151;BME280;59071;42.138;24.768;2023-07-20T02:01:54;99078.16;;;30.71;36.73
71151;BME280;59071;42.138;24.768;2023-07-20T02:04:20;99080.72;;;30.64;37.49
71151;BME280;59071;42.138;24.768;2023-07-20T02:06:45;99072.50;;;30.48;37.57
71151;BME280;59071;42.138;24.768;2023-07-20T02:09:10;99083.63;;;30.55;37.78
71151;BME280;59071;42.138;24.768;2023-07-20T02:11:36;99084.72;;;30.83;36.72
71151;BME280;59071;42.138;24.768;2023-07-20T02:14:01;99079.13;;;31.11;36.17
71151;BME280;59071;42.138;24.768;2023-07-20T02:16:27;99087.22;;;31.39;35.91
71151;BME280;59071;42.138;24.768;2023-07-20T02:18:52;99079.66;;;30.85;36.67
71151;BME280;59071;42.138;24.768;2023-07-20T02:21:18;99087.72;;;30.77;36.62
71151;BME280;59071;42.138;24.768;2023-07-20T02:23:43;99094.09;;;30.82;36.68
71151;BME280;59071;42.138;24.768;2023-07-20T02:26:09;99084.91;;;30.90;37.22
71151;BME280;59071;42.138;24.768;2023-07-20T02:28:34;99097.44;;;30.15;39.29
71151;BME280;59071;42.138;24.768;2023-07-20T02:31:00;99100.44;;;29.81;39.13
71151;BME280;59071;42.138;24.768;2023-07-20T02:33:25;99105.66;;;29.87;38.50
71151;BME280;59071;42.138;24.768;2023-07-20T02:35:51;99091.94;;;29.46;39.53
71151;BME280;59071;42.138;24.768;2023-07-20T02:38:17;99088.44;;;29.21;39.96
71151;BME280;59071;42.138;24.768;2023-07-20T02:40:43;99063.22;;;28.91;40.19
71151;BME280;59071;42.138;24.768;2023-07-20T02:43:08;99078.50;;;29.29;39.93
71151;BME280;59071;42.138;24.768;2023-07-20T02:45:35;99071.63;;;29.35;39.56
71151;BME280;59071;42.138;24.768;2023-07-20T02:48:04;99079.84;;;29.35;40.55
71151;BME280;59071;42.138;24.768;2023-07-20T02:50:33;99080.53;;;29.44;40.81
71151;BME280;59071;42.138;24.768;2023-07-20T02:52:59;99080.53;;;29.44;40.71
71151;BME280;59071;42.138;24.768;2023-07-20T02:55:24;99091.31;;;29.65;39.88
71151;BME280;59071;42.138;24.768;2023-07-20T02:57:50;99076.59;;;29.98;39.45
71151;BME280;59071;42.138;24.768;2023-07-20T03:00:16;99073.00;;;28.67;42.36
71151;BME280;59071;42.138;24.768;2023-07-20T03:02:41;99066.06;;;28.36;42.89
71151;BME280;59071;42.138;24.768;2023-07-20T03:05:07;99070.09;;;28.51;43.17
71151;BME280;59071;42.138;24.768;2023-07-20T03:07:33;99064.44;;;28.56;43.13
71151;BME280;59071;42.138;24.768;2023-07-20T03:09:58;99067.63;;;28.71;42.49
71151;BME280;59071;42.138;24.768;2023-07-20T03:12:24;99076.66;;;29.20;41.01
71151;BME280;59071;42.138;24.768;2023-07-20T03:14:49;99079.63;;;29.03;41.04
71151;BME280;59071;42.138;24.768;2023-07-20T03:17:15;99075.19;;;28.28;43.08
71151;BME280;59071;42.138;24.768;2023-07-20T03:19:41;99078.72;;;28.28;43.17
71151;BME280;59071;42.138;24.768;2023-07-20T03:22:06;99070.44;;;28.50;43.12
71151;BME280;59071;42.138;24.768;2023-07-20T03:24:32;99064.09;;;28.58;43.01
71151;BME280;59071;42.138;24.768;2023-07-20T03:26:58;99065.81;;;28.75;42.89
71151;BME280;59071;42.138;24.768;2023-07-20T03:29:23;99067.66;;;28.95;41.65
71151;BME280;59071;42.138;24.768;2023-07-20T03:31:49;99071.06;;;29.04;41.47
71151;BME280;59071;42.138;24.768;2023-07-20T03:34:15;99075.59;;;29.50;40.25
71151;BME280;59071;42.138;24.768;2023-07-20T03:36:41;99057.59;;;29.12;41.13
71151;BME280;59071;42.138;24.768;2023-07-20T03:39:06;99061.81;;;28.72;42.34
71151;BME280;59071;42.138;24.768;2023-07-20T03:41:31;99062.75;;;28.76;42.66
71151;BME280;59071;42.138;24.768;2023-07-20T03:43:57;99051.91;;;28.80;42.50
71151;BME280;59071;42.138;24.768;2023-07-20T03:46:22;99048.94;;;28.97;42.38
71151;BME280;59071;42.138;24.768;2023-07-20T03:48:48;99053.41;;;29.27;41.91
71151;BME280;59071;42.138;24.768;2023-07-20T03:51:13;99047.53;;;29.28;41.67
71151;BME280;59071;42.138;24.768;2023-07-20T03:53:39;99055.16;;;29.47;42.14
71151;BME280;59071;42.138;24.768;2023-07-20T03:56:05;99055.59;;;29.61;41.35
71151;BME280;59071;42.138;24.768;2023-07-20T03:58:30;99050.44;;;30.45;40.25
71151;BME280;59071;42.138;24.768;2023-07-20T04:00:57;99061.53;;;29.76;42.42
71151;BME280;59071;42.138;24.768;2023-07-20T04:03:22;99063.03;;;29.61;42.21
71151;BME280;59071;42.138;24.768;2023-07-20T04:05:49;99063.44;;;29.75;41.17
71151;BME280;59071;42.138;24.768;2023-07-20T04:08:15;99061.31;;;29.97;40.76
71151;BME280;59071;42.138;24.768;2023-07-20T04:10:43;99070.16;;;30.34;40.09
71151;BME280;59071;42.138;24.768;2023-07-20T04:13:09;99066.63;;;30.50;39.80
71151;BME280;59071;42.138;24.768;2023-07-20T04:15:34;99057.03;;;31.23;38.31
71151;BME280;59071;42.138;24.768;2023-07-20T04:18:00;99065.03;;;30.80;38.95
71151;BME280;59071;42.138;24.768;2023-07-20T04:20:26;99062.81;;;30.86;39.64
71151;BME280;59071;42.138;24.768;2023-07-20T04:22:51;99070.69;;;30.88;40.23
71151;BME280;59071;42.138;24.768;2023-07-20T04:25:17;99067.50;;;31.17;40.45
71151;BME280;59071;42.138;24.768;2023-07-20T04:27:43;99075.75;;;31.17;39.14
71151;BME280;59071;42.138;24.768;2023-07-20T04:30:10;99073.31;;;31.32;38.76
71151;BME280;59071;42.138;24.768;2023-07-20T04:32:36;99081.88;;;31.82;38.19
71151;BME280;59071;42.138;24.768;2023-07-20T04:35:06;99082.69;;;31.47;37.99
71151;BME280;59071;42.138;24.768;2023-07-20T04:37:32;99079.28;;;31.34;37.81
71151;BME280;59071;42.138;24.768;2023-07-20T04:39:57;99080.47;;;31.01;37.67
71151;BME280;59071;42.138;24.768;2023-07-20T04:42:22;99079.63;;;31.16;37.67
71151;BME280;59071;42.138;24.768;2023-07-20T04:44:48;99075.06;;;31.05;37.83
71151;BME280;59071;42.138;24.768;2023-07-20T04:47:13;99086.03;;;31.05;38.19
71151;BME280;59071;42.138;24.768;2023-07-20T04:49:38;99086.34;;;31.35;37.50
71151;BME280;59071;42.138;24.768;2023-07-20T04:52:05;99091.16;;;32.12;36.46
71151;BME280;59071;42.138;24.768;2023-07-20T04:54:30;99099.25;;;31.66;37.39
71151;BME280;59071;42.138;24.768;2023-07-20T04:56:55;99097.78;;;31.72;36.96
71151;BME280;59071;42.138;24.768;2023-07-20T04:59:21;99092.91;;;31.66;37.20
71151;BME280;59071;42.138;24.768;2023-07-20T05:01:46;99105.16;;;32.27;36.05
71151;BME280;59071;42.138;24.768;2023-07-20T05:04:12;99096.59;;;32.32;36.04
71151;BME280;59071;42.138;24.768;2023-07-20T05:06:37;99098.66;;;32.81;34.99
71151;BME280;59071;42.138;24.768;2023-07-20T05:09:04;99099.31;;;33.21;34.45
71151;BME280;59071;42.138;24.768;2023-07-20T05:11:30;99099.00;;;33.56;33.76
71151;BME280;59071;42.138;24.768;2023-07-20T05:13:56;99099.41;;;33.28;34.57
71151;BME280;59071;42.138;24.768;2023-07-20T05:16:21;99101.47;;;33.35;34.67
71151;BME280;59071;42.138;24.768;2023-07-20T05:18:46;99091.53;;;33.26;34.53
71151;BME280;59071;42.138;24.768;2023-07-20T05:21:13;99090.91;;;33.40;33.95
71151;BME280;59071;42.138;24.768;2023-07-20T05:23:38;99091.97;;;33.05;34.62
71151;BME280;59071;42.138;24.768;2023-07-20T05:26:04;99099.84;;;33.91;33.66
71151;BME280;59071;42.138;24.768;2023-07-20T05:28:29;99096.53;;;33.74;33.92
71151;BME280;59071;42.138;24.768;2023-07-20T05:30:55;99091.75;;;33.71;34.46
71151;BME280;59071;42.138;24.768;2023-07-20T05:33:21;99088.91;;;33.98;33.16
71151;BME280;59071;42.138;24.768;2023-07-20T05:35:47;99091.91;;;34.19;32.72
71151;BME280;59071;42.138;24.768;2023-07-20T05:38:13;99093.78;;;34.12;32.65
71151;BME280;59071;42.138;24.768;2023-07-20T05:40:41;99083.94;;;34.52;32.19
71151;BME280;59071;42.138;24.768;2023-07-20T05:43:10;99078.25;;;35.23;31.73
71151;BME280;59071;42.138;24.768;2023-07-20T05:45:37;99081.00;;;35.23;31.63
71151;BME280;59071;42.138;24.768;2023-07-20T05:48:02;99082.91;;;35.15;31.84
71151;BME280;59071;42.138;24.768;2023-07-20T05:50:28;99074.59;;;35.15;31.50
71151;BME280;59071;42.138;24.768;2023-07-20T05:52:53;99070.41;;;35.36;30.38
71151;BME280;59071;42.138;24.768;2023-07-20T05:55:19;99061.91;;;35.77;29.58
71151;BME280;59071;42.138;24.768;2023-07-20T05:57:44;99064.75;;;35.98;29.71
71151;BME280;59071;42.138;24.768;2023-07-20T06:00:10;99062.78;;;36.03;29.17
71151;BME280;59071;42.138;24.768;2023-07-20T06:02:39;99061.56;;;35.93;29.48
71151;BME280;59071;42.138;24.768;2023-07-20T06:05:06;99061.56;;;35.93;29.72
71151;BME280;59071;42.138;24.768;2023-07-20T06:07:36;99050.13;;;36.05;29.47
71151;BME280;59071;42.138;24.768;2023-07-20T06:10:02;99045.47;;;36.24;29.47
71151;BME280;59071;42.138;24.768;2023-07-20T06:12:28;99047.03;;;37.00;27.92
71151;BME280;59071;42.138;24.768;2023-07-20T06:14:53;99039.91;;;36.24;28.88
71151;BME280;59071;42.138;24.768;2023-07-20T06:17:19;99041.88;;;36.27;28.67
71151;BME280;59071;42.138;24.768;2023-07-20T06:19:44;99033.59;;;36.45;29.02
71151;BME280;59071;42.138;24.768;2023-07-20T06:22:10;99047.09;;;36.68;28.27
71151;BME280;59071;42.138;24.768;2023-07-20T06:24:35;99041.84;;;37.31;27.70
71151;BME280;59071;42.138;24.768;2023-07-20T06:27:01;99034.16;;;37.71;26.74
71151;BME280;59071;42.138;24.768;2023-07-20T06:29:26;99032.81;;;36.80;27.94
71151;BME280;59071;42.138;24.768;2023-07-20T06:31:51;99036.00;;;36.68;28.38
71151;BME280;59071;42.138;24.768;2023-07-20T06:34:17;99040.28;;;36.97;27.88
71151;BME280;59071;42.138;24.768;2023-07-20T06:36:42;99032.66;;;37.48;27.69
71151;BME280;59071;42.138;24.768;2023-07-20T06:39:08;99039.16;;;38.61;26.56
71151;BME280;59071;42.138;24.768;2023-07-20T06:41:33;99031.16;;;38.66;26.06
71151;BME280;59071;42.138;24.768;2023-07-20T06:43:58;99036.34;;;38.64;26.17
71151;BME280;59071;42.138;24.768;2023-07-20T06:46:25;99032.72;;;38.71;25.84
71151;BME280;59071;42.138;24.768;2023-07-20T06:48:51;99035.41;;;38.78;25.64
71151;BME280;59071;42.138;24.768;2023-07-20T06:51:16;99034.06;;;38.52;26.01
71151;BME280;59071;42.138;24.768;2023-07-20T06:53:43;99033.34;;;39.62;24.37
71151;BME280;59071;42.138;24.768;2023-07-20T06:56:08;99027.03;;;39.58;25.18
71151;BME280;59071;42.138;24.768;2023-07-20T06:58:34;99032.41;;;39.41;24.80
71151;BME280;59071;42.138;24.768;2023-07-20T07:01:04;99023.97;;;39.48;24.96
71151;BME280;59071;42.138;24.768;2023-07-20T07:03:30;99024.56;;;39.63;25.14
71151;BME280;59071;42.138;24.768;2023-07-20T07:05:56;99028.34;;;40.58;23.69
71151;BME280;59071;42.138;24.768;2023-07-20T07:08:21;99030.19;;;40.45;23.54
71151;BME280;59071;42.138;24.768;2023-07-20T07:10:47;99013.94;;;40.13;24.18
71151;BME280;59071;42.138;24.768;2023-07-20T07:13:12;99028.22;;;39.91;24.40
71151;BME280;59071;42.138;24.768;2023-07-20T07:15:38;99035.66;;;39.98;24.47
71151;BME280;59071;42.138;24.768;2023-07-20T07:18:03;99027.47;;;40.14;24.34
71151;BME280;59071;42.138;24.768;2023-07-20T07:20:29;99023.16;;;41.04;23.20
71151;BME280;59071;42.138;24.768;2023-07-20T07:22:55;99013.13;;;40.63;23.41
71151;BME280;59071;42.138;24.768;2023-07-20T07:25:21;99018.25;;;40.44;23.50
71151;BME280;59071;42.138;24.768;2023-07-20T07:27:46;99017.63;;;40.33;24.17
71151;BME280;59071;42.138;24.768;2023-07-20T07:30:12;99017.75;;;40.50;23.85
71151;BME280;59071;42.138;24.768;2023-07-20T07:32:37;99023.44;;;40.90;23.34
71151;BME280;59071;42.138;24.768;2023-07-20T07:35:04;99019.44;;;40.91;22.94
71151;BME280;59071;42.138;24.768;2023-07-20T07:37:29;99013.38;;;39.98;22.77
71151;BME280;59071;42.138;24.768;2023-07-20T07:39:55;99012.09;;;39.41;23.84
71151;BME280;59071;42.138;24.768;2023-07-20T07:42:20;99004.63;;;39.38;23.70
71151;BME280;59071;42.138;24.768;2023-07-20T07:44:46;99007.50;;;39.61;23.87
71151;BME280;59071;42.138;24.768;2023-07-20T07:47:11;99004.53;;;39.76;24.42
71151;BME280;59071;42.138;24.768;2023-07-20T07:49:37;99003.31;;;39.77;24.04
71151;BME280;59071;42.138;24.768;2023-07-20T07:52:03;99001.22;;;40.12;23.29
71151;BME280;59071;42.138;24.768;2023-07-20T07:54:28;99002.41;;;40.38;23.17
71151;BME280;59071;42.138;24.768;2023-07-20T07:56:54;99008.16;;;40.98;23.17
71151;BME280;59071;42.138;24.768;2023-07-20T07:59:20;99001.44;;;41.15;21.90
71151;BME280;59071;42.138;24.768;2023-07-20T08:01:45;99011.09;;;40.67;23.16
71151;BME280;59071;42.138;24.768;2023-07-20T08:04:11;99015.41;;;40.92;22.63
71151;BME280;59071;42.138;24.768;2023-07-20T08:06:36;99014.16;;;41.16;22.16
71151;BME280;59071;42.138;24.768;2023-07-20T08:09:02;99007.00;;;41.35;22.36
71151;BME280;59071;42.138;24.768;2023-07-20T08:11:28;99004.75;;;40.63;22.34
71151;BME280;59071;42.138;24.768;2023-07-20T08:13:56;99015.41;;;40.48;23.02
71151;BME280;59071;42.138;24.768;2023-07-20T08:16:21;99009.97;;;39.83;23.59
71151;BME280;59071;42.138;24.768;2023-07-20T08:18:47;99009.78;;;39.70;23.55
71151;BME280;59071;42.138;24.768;2023-07-20T08:21:12;99011.16;;;40.13;23.47
71151;BME280;59071;42.138;24.768;2023-07-20T08:23:38;99015.72;;;40.54;23.11
71151;BME280;59071;42.138;24.768;2023-07-20T08:26:03;99006.16;;;40.75;22.58
71151;BME280;59071;42.138;24.768;2023-07-20T08:28:29;99009.56;;;40.62;22.77
71151;BME280;59071;42.138;24.768;2023-07-20T08:30:54;99008.88;;;39.77;23.77
71151;BME280;59071;42.138;24.768;2023-07-20T08:33:20;99009.31;;;39.44;23.41
71151;BME280;59071;42.138;24.768;2023-07-20T08:35:46;99014.22;;;39.64;23.52
71151;BME280;59071;42.138;24.768;2023-07-20T08:38:12;99022.09;;;39.38;23.37
71151;BME280;59071;42.138;24.768;2023-07-20T08:40:42;99019.25;;;39.45;23.74
71151;BME280;59071;42.138;24.768;2023-07-20T08:43:10;99021.56;;;39.81;23.15
71151;BME280;59071;42.138;24.768;2023-07-20T08:45:36;99020.38;;;40.37;22.95
71151;BME280;59071;42.138;24.768;2023-07-20T08:48:05;99005.50;;;40.91;22.56
71151;BME280;59071;42.138;24.768;2023-07-20T08:50:31;99010.00;;;40.84;22.80
71151;BME280;59071;42.138;24.768;2023-07-20T08:52:58;99013.31;;;41.19;22.55
71151;BME280;59071;42.138;24.768;2023-07-20T08:55:26;99000.25;;;41.73;21.77
71151;BME280;59071;42.138;24.768;2023-07-20T08:57:54;98997.94;;;41.11;22.51
71151;BME280;59071;42.138;24.768;2023-07-20T09:00:21;99001.00;;;40.73;22.85
71151;BME280;59071;42.138;24.768;2023-07-20T09:02:50;98990.69;;;41.14;22.76
71151;BME280;59071;42.138;24.768;2023-07-20T09:05:19;98991.47;;;41.54;22.47
71151;BME280;59071;42.138;24.768;2023-07-20T09:07:45;98985.28;;;41.99;21.92
71151;BME280;59071;42.138;24.768;2023-07-20T09:10:11;98982.69;;;41.16;22.67
71151;BME280;59071;42.138;24.768;2023-07-20T09:12:46;98970.00;;;40.48;23.33
71151;BME280;59071;42.138;24.768;2023-07-20T09:15:12;98967.94;;;40.52;22.99
71151;BME280;59071;42.138;24.768;2023-07-20T09:17:37;98961.47;;;40.58;23.34
71151;BME280;59071;42.138;24.768;2023-07-20T09:20:04;98963.31;;;40.65;22.93
71151;BME280;59071;42.138;24.768;2023-07-20T09:22:33;98966.47;;;41.31;22.58
71151;BME280;59071;42.138;24.768;2023-07-20T09:24:59;98959.38;;;41.06;23.35
71151;BME280;59071;42.138;24.768;2023-07-20T09:27:45;98952.88;;;41.13;22.93
71151;BME280;59071;42.138;24.768;2023-07-20T09:30:11;98944.00;;;41.38;22.64
71151;BME280;59071;42.138;24.768;2023-07-20T09:32:47;98939.63;;;41.17;23.16
71151;BME280;59071;42.138;24.768;2023-07-20T09:35:17;98927.88;;;41.46;22.41
71151;BME280;59071;42.138;24.768;2023-07-20T09:40:20;98937.88;;;40.63;23.24
71151;BME280;59071;42.138;24.768;2023-07-20T09:42:47;98933.41;;;40.45;23.01
71151;BME280;59071;42.138;24.768;2023-07-20T09:45:13;98928.53;;;40.73;22.75
71151;BME280;59071;42.138;24.768;2023-07-20T09:47:39;98919.47;;;41.09;22.97
71151;BME280;59071;42.138;24.768;2023-07-20T09:50:06;98923.97;;;41.59;22.52
71151;BME280;59071;42.138;24.768;2023-07-20T09:52:38;98921.03;;;41.67;22.95
71151;BME280;59071;42.138;24.768;2023-07-20T09:55:06;98920.53;;;41.15;23.25
71151;BME280;59071;42.138;24.768;2023-07-20T09:57:33;98918.34;;;40.87;23.13
71151;BME280;59071;42.138;24.768;2023-07-20T09:59:59;98916.81;;;41.02;22.65
71151;BME280;59071;42.138;24.768;2023-07-20T10:02:32;98904.34;;;40.67;23.56
71151;BME280;59071;42.138;24.768;2023-07-20T10:05:02;98900.53;;;41.20;22.73
71151;BME280;59071;42.138;24.768;2023-07-20T10:07:30;98909.75;;;39.83;24.65
71151;BME280;59071;42.138;24.768;2023-07-20T10:09:56;98904.19;;;39.28;24.77
71151;BME280;59071;42.138;24.768;2023-07-20T10:12:25;98896.78;;;39.49;24.38
71151;BME280;59071;42.138;24.768;2023-07-20T10:15:25;98894.16;;;39.62;24.43
71151;BME280;59071;42.138;24.768;2023-07-20T10:18:12;98895.06;;;40.06;23.90
71151;BME280;59071;42.138;24.768;2023-07-20T10:20:40;98875.44;;;40.80;23.84
71151;BME280;59071;42.138;24.768;2023-07-20T10:23:06;98871.19;;;40.52;23.96
71151;BME280;59071;42.138;24.768;2023-07-20T10:25:32;98868.25;;;40.59;23.51
71151;BME280;59071;42.138;24.768;2023-07-20T10:28:06;98873.63;;;40.70;23.57
71151;BME280;59071;42.138;24.768;2023-07-20T10:30:36;98861.13;;;40.78;23.28
71151;BME280;59071;42.138;24.768;2023-07-20T10:33:02;98859.91;;;40.79;23.32
71151;BME280;59071;42.138;24.768;2023-07-20T10:35:28;98867.06;;;40.80;22.51
71151;BME280;59071;42.138;24.768;2023-07-20T10:38:00;98857.31;;;39.54;23.95
71151;BME280;59071;42.138;24.768;2023-07-20T10:40:29;98849.78;;;40.25;23.29
71151;BME280;59071;42.138;24.768;2023-07-20T10:43:06;98850.88;;;40.92;23.02
71151;BME280;59071;42.138;24.768;2023-07-20T10:45:45;98851.63;;;40.56;22.79
71151;BME280;59071;42.138;24.768;2023-07-20T10:50:40;98843.94;;;41.00;22.94
71151;BME280;59071;42.138;24.768;2023-07-20T10:53:11;98846.38;;;40.98;23.32
71151;BME280;59071;42.138;24.768;2023-07-20T10:55:38;98841.44;;;41.42;22.98
71151;BME280;59071;42.138;24.768;2023-07-20T10:58:14;98845.63;;;41.83;22.45
71151;BME280;59071;42.138;24.768;2023-07-20T11:00:56;98836.63;;;41.59;22.16
71151;BME280;59071;42.138;24.768;2023-07-20T11:03:29;98832.00;;;41.36;22.35
71151;BME280;59071;42.138;24.768;2023-07-20T11:05:57;98819.97;;;41.22;22.60
71151;BME280;59071;42.138;24.768;2023-07-20T11:08:41;98830.97;;;41.10;22.35
71151;BME280;59071;42.138;24.768;2023-07-20T11:11:30;98818.56;;;40.74;22.15
71151;BME280;59071;42.138;24.768;2023-07-20T11:13:56;98821.53;;;41.56;21.17
71151;BME280;59071;42.138;24.768;2023-07-20T11:18:59;98817.38;;;41.65;21.29
71151;BME280;59071;42.138;24.768;2023-07-20T11:21:24;98818.59;;;42.26;20.93
71151;BME280;59071;42.138;24.768;2023-07-20T11:23:52;98818.06;;;42.60;20.30
71151;BME280;59071;42.138;24.768;2023-07-20T11:26:17;98814.66;;;42.94;19.35
71151;BME280;59071;42.138;24.768;2023-07-20T11:28:43;98812.19;;;43.22;18.67
71151;BME280;59071;42.138;24.768;2023-07-20T11:31:08;98800.75;;;42.65;19.14
71151;BME280;59071;42.138;24.768;2023-07-20T11:33:34;98794.25;;;42.68;19.50
71151;BME280;59071;42.138;24.768;2023-07-20T11:35:59;98788.41;;;42.63;19.61
71151;BME280;59071;42.138;24.768;2023-07-20T11:38:25;98781.16;;;42.65;20.06
71151;BME280;59071;42.138;24.768;2023-07-20T11:40:50;98785.22;;;43.15;19.22
71151;BME280;59071;42.138;24.768;2023-07-20T11:43:16;98779.22;;;43.30;19.19
71151;BME280;59071;42.138;24.768;2023-07-20T11:45:41;98783.56;;;43.05;19.26
71151;BME280;59071;42.138;24.768;2023-07-20T11:48:07;98785.28;;;43.76;19.25
71151;BME280;59071;42.138;24.768;2023-07-20T11:50:39;98779.28;;;43.87;18.43
71151;BME280;59071;42.138;24.768;2023-07-20T11:53:05;98783.44;;;43.47;18.14
71151;BME280;59071;42.138;24.768;2023-07-20T11:55:31;98774.84;;;43.29;18.45
71151;BME280;59071;42.138;24.768;2023-07-20T11:58:05;98770.31;;;43.57;18.59
71151;BME280;59071;42.138;24.768;2023-07-20T12:00:31;98779.38;;;43.74;18.94
71151;BME280;59071;42.138;24.768;2023-07-20T12:02:57;98771.78;;;43.23;19.61
71151;BME280;59071;42.138;24.768;2023-07-20T12:05:23;98769.00;;;43.36;19.44
71151;BME280;59071;42.138;24.768;2023-07-20T12:07:49;98768.78;;;43.18;19.11
71151;BME280;59071;42.138;24.768;2023-07-20T12:10:23;98763.06;;;43.21;19.11
71151;BME280;59071;42.138;24.768;2023-07-20T12:12:49;98760.91;;;42.74;19.81
71151;BME280;59071;42.138;24.768;2023-07-20T12:15:26;98751.44;;;42.97;20.02
71151;BME280;59071;42.138;24.768;2023-07-20T12:18:01;98741.38;;;43.00;19.46
71151;BME280;59071;42.138;24.768;2023-07-20T12:20:33;98736.75;;;43.31;19.72
71151;BME280;59071;42.138;24.768;2023-07-20T12:23:11;98733.66;;;43.17;19.53
71151;BME280;59071;42.138;24.768;2023-07-20T12:25:45;98726.94;;;43.62;19.19
71151;BME280;59071;42.138;24.768;2023-07-20T12:28:18;98717.25;;;44.64;18.60
71151;BME280;59071;42.138;24.768;2023-07-20T12:30:45;98710.00;;;44.22;19.35
71151;BME280;59071;42.138;24.768;2023-07-20T12:33:11;98700.53;;;44.07;19.72
71151;BME280;59071;42.138;24.768;2023-07-20T12:35:39;98691.34;;;44.28;18.51
71151;BME280;59071;42.138;24.768;2023-07-20T12:38:04;98689.28;;;43.98;18.97
71151;BME280;59071;42.138;24.768;2023-07-20T12:40:31;98685.03;;;44.37;19.05
71151;BME280;59071;42.138;24.768;2023-07-20T12:42:57;98681.41;;;44.59;18.67
71151;BME280;59071;42.138;24.768;2023-07-20T12:45:22;98676.63;;;44.78;18.02
71151;BME280;59071;42.138;24.768;2023-07-20T12:47:48;98672.06;;;44.08;18.48
71151;BME280;59071;42.138;24.768;2023-07-20T12:50:13;98686.69;;;44.25;18.90
71151;BME280;59071;42.138;24.768;2023-07-20T12:52:40;98677.16;;;44.23;18.87
71151;BME280;59071;42.138;24.768;2023-07-20T12:55:08;98677.75;;;43.96;19.69
71151;BME280;59071;42.138;24.768;2023-07-20T12:57:34;98681.03;;;43.72;19.53
71151;BME280;59071;42.138;24.768;2023-07-20T13:00:00;98682.97;;;43.49;19.53
71151;BME280;59071;42.138;24.768;2023-07-20T13:02:26;98692.88;;;43.28;19.89
71151;BME280;59071;42.138;24.768;2023-07-20T13:04:52;98696.47;;;43.16;20.00
71151;BME280;59071;42.138;24.768;2023-07-20T13:07:29;98688.63;;;43.93;19.18
71151;BME280;59071;42.138;24.768;2023-07-20T13:09:54;98700.31;;;42.71;20.09